createdAt,value
2019-02-24T00:00:39.599Z,0.26
2019-02-24T00:03:11.375Z,0.23
2019-02-24T00:05:43.073Z,0.21
2019-02-24T00:08:14.686Z,0.27
2019-02-24T00:10:46.444Z,0.22
2019-02-24T00:13:18.129Z,0.24
2019-02-24T00:15:49.737Z,0.38
2019-02-24T00:18:21.544Z,0.31
2019-02-24T00:20:54.215Z,0.29
2019-02-24T00:23:25.842Z,0.35
2019-02-24T00:25:57.514Z,0.40
2019-02-24T00:28:29.105Z,0.37
2019-02-24T00:31:00.798Z,0.32
2019-02-24T00:33:32.530Z,0.27
2019-02-24T00:36:04.131Z,0.13
2019-02-24T00:38:35.822Z,0.13
2019-02-24T00:41:07.420Z,0.11
2019-02-24T00:43:39.019Z,0.10
2019-02-24T00:46:10.609Z,0.10
2019-02-24T00:48:42.417Z,0.11
2019-02-24T00:51:14.080Z,0.14
2019-02-24T00:53:45.684Z,0.18
2019-02-24T00:56:17.333Z,0.23
2019-02-24T00:58:49.163Z,0.20
2019-02-24T01:01:20.746Z,0.13
2019-02-24T01:03:52.504Z,0.12
2019-02-24T01:06:26.827Z,0.04
2019-02-24T01:08:58.510Z,0.03
2019-02-24T01:11:30.150Z,0.07
2019-02-24T01:14:01.768Z,0.06
2019-02-24T01:16:33.455Z,0.17
2019-02-24T01:19:05.055Z,0.19
2019-02-24T01:21:36.645Z,0.18
2019-02-24T01:24:08.275Z,0.13
2019-02-24T01:26:39.856Z,0.17
2019-02-24T01:29:11.469Z,0.27
2019-02-24T01:31:43.053Z,0.27
2019-02-24T01:34:14.715Z,0.25
2019-02-24T01:36:46.308Z,0.26
2019-02-24T01:39:17.986Z,0.29
2019-02-24T01:41:49.593Z,0.23
2019-02-24T01:44:21.500Z,0.35
2019-02-24T01:46:54.167Z,0.35
2019-02-24T01:49:25.846Z,0.40
2019-02-24T01:51:57.445Z,0.42
2019-02-24T01:54:29.095Z,0.48
2019-02-24T01:57:00.757Z,0.43
2019-02-24T01:59:32.421Z,0.40
2019-02-24T02:02:04.042Z,0.40
2019-02-24T02:04:35.711Z,0.34
2019-02-24T02:07:07.047Z,0.39
2019-02-24T02:09:38.645Z,0.35
2019-02-24T02:12:11.838Z,0.45
2019-02-24T02:14:43.638Z,0.48
2019-02-24T02:17:15.286Z,0.46
2019-02-24T02:19:46.951Z,0.49
2019-02-24T02:22:18.626Z,0.51
2019-02-24T02:24:50.358Z,0.52
2019-02-24T02:27:22.234Z,0.52
2019-02-24T02:29:56.692Z,0.47
2019-02-24T02:32:28.389Z,0.50
2019-02-24T02:35:00.296Z,0.57
2019-02-24T02:37:32.026Z,0.51
2019-02-24T02:40:03.681Z,0.49
2019-02-24T02:42:35.347Z,0.52
2019-02-24T02:45:08.344Z,0.48
2019-02-24T02:47:40.016Z,0.46
2019-02-24T02:50:11.678Z,0.56
2019-02-24T02:52:43.334Z,0.62
2019-02-24T02:55:15.011Z,0.52
2019-02-24T02:57:46.882Z,0.50
2019-02-24T03:00:33.098Z,0.62
2019-02-24T03:03:04.747Z,0.43
2019-02-24T03:05:36.418Z,0.54
2019-02-24T03:08:12.848Z,0.54
2019-02-24T03:10:44.492Z,0.63
2019-02-24T03:13:16.083Z,0.62
2019-02-24T03:15:47.688Z,0.53
2019-02-24T03:18:19.581Z,0.59
2019-02-24T03:20:51.548Z,0.64
2019-02-24T03:23:23.441Z,0.66
2019-02-24T03:25:55.330Z,0.69
2019-02-24T03:28:26.921Z,0.65
2019-02-24T03:30:58.515Z,0.59
2019-02-24T03:33:30.085Z,0.67
2019-02-24T03:36:02.774Z,0.68
2019-02-24T03:38:34.366Z,0.75
2019-02-24T03:41:06.050Z,0.90
2019-02-24T03:43:37.628Z,0.89
2019-02-24T03:46:10.303Z,0.87
2019-02-24T03:48:41.969Z,0.76
2019-02-24T03:51:13.565Z,0.92
2019-02-24T03:53:45.225Z,1.00
2019-02-24T03:56:16.831Z,1.07
2019-02-24T03:58:48.465Z,1.08
2019-02-24T04:01:20.509Z,0.99
2019-02-24T04:03:52.252Z,1.04
2019-02-24T04:06:23.934Z,1.07
2019-02-24T04:08:55.511Z,1.02
2019-02-24T04:11:27.124Z,1.00
2019-02-24T04:13:58.719Z,1.06
2019-02-24T04:16:30.386Z,1.05
2019-02-24T04:19:01.960Z,0.97
2019-02-24T04:21:33.585Z,0.99
2019-02-24T04:24:05.209Z,0.84
2019-02-24T04:26:38.168Z,0.90
2019-02-24T04:29:10.220Z,0.99
2019-02-24T04:31:41.860Z,0.93
2019-02-24T04:34:13.432Z,0.87
2019-02-24T04:36:45.103Z,0.86
2019-02-24T04:39:16.676Z,0.85
2019-02-24T04:41:48.654Z,0.97
2019-02-24T04:44:20.491Z,0.92
2019-02-24T04:46:52.426Z,0.83
2019-02-24T04:49:24.097Z,0.84
2019-02-24T04:51:55.774Z,0.92
2019-02-24T04:54:27.483Z,0.89
2019-02-24T04:56:59.085Z,1.00
2019-02-24T04:59:34.949Z,1.04
2019-02-24T05:02:04.066Z,0.96
2019-02-24T05:04:35.714Z,0.86
2019-02-24T05:07:07.336Z,0.94
2019-02-24T05:09:38.994Z,0.98
2019-02-24T05:12:10.582Z,0.88
2019-02-24T05:14:42.235Z,0.83
2019-02-24T05:17:13.851Z,0.94
2019-02-24T05:19:45.430Z,0.89
2019-02-24T05:22:17.044Z,0.95
2019-02-24T05:24:48.699Z,1.08
2019-02-24T05:27:20.470Z,1.08
2019-02-24T05:29:52.419Z,1.00
2019-02-24T05:32:24.021Z,1.02
2019-02-24T05:34:55.603Z,1.04
2019-02-24T05:37:27.206Z,1.12
2019-02-24T05:39:58.852Z,1.06
2019-02-24T05:42:30.447Z,1.10
2019-02-24T05:45:02.036Z,1.05
2019-02-24T05:47:33.695Z,1.00
2019-02-24T05:50:06.818Z,1.11
2019-02-24T05:52:38.666Z,1.10
2019-02-24T05:55:11.789Z,1.07
2019-02-24T05:57:44.509Z,1.03
2019-02-24T06:00:16.266Z,0.98
2019-02-24T06:02:47.928Z,0.97
2019-02-24T06:05:19.509Z,0.94
2019-02-24T06:07:51.165Z,0.99
2019-02-24T06:10:22.846Z,1.01
2019-02-24T06:12:54.435Z,1.01
2019-02-24T06:15:26.038Z,1.05
2019-02-24T06:17:57.717Z,0.99
2019-02-24T06:20:29.371Z,0.95
2019-02-24T06:23:00.953Z,0.94
2019-02-24T06:25:32.608Z,0.93
2019-02-24T06:28:04.205Z,0.81
2019-02-24T06:30:35.816Z,0.87
2019-02-24T06:33:07.485Z,0.89
2019-02-24T06:35:39.089Z,0.88
2019-02-24T06:38:11.232Z,0.93
2019-02-24T06:40:42.825Z,1.02
2019-02-24T06:43:14.468Z,1.00
2019-02-24T06:45:46.119Z,0.99
2019-02-24T06:48:18.030Z,0.85
2019-02-24T06:50:54.759Z,0.93
2019-02-24T06:53:26.454Z,0.98
2019-02-24T06:55:58.045Z,1.03
2019-02-24T06:58:30.111Z,1.00
2019-02-24T07:01:01.962Z,1.02
2019-02-24T07:03:33.723Z,1.09
2019-02-24T07:06:05.711Z,1.13
2019-02-24T07:08:37.333Z,1.10
2019-02-24T07:11:09.079Z,1.11
2019-02-24T07:13:40.828Z,1.11
2019-02-24T07:16:12.488Z,1.12
2019-02-24T07:18:44.098Z,1.07
2019-02-24T07:21:15.695Z,1.06
2019-02-24T07:23:47.371Z,1.08
2019-02-24T07:26:18.971Z,1.07
2019-02-24T07:28:50.853Z,1.06
2019-02-24T07:31:22.912Z,1.03
2019-02-24T07:33:54.895Z,1.06
2019-02-24T07:36:26.596Z,1.09
2019-02-24T07:38:58.915Z,1.14
2019-02-24T07:41:30.914Z,1.21
2019-02-24T07:44:02.948Z,1.19
2019-02-24T07:46:34.536Z,1.31
2019-02-24T07:49:06.389Z,1.42
2019-02-24T07:51:38.035Z,1.43
2019-02-24T07:54:09.682Z,1.46
2019-02-24T07:56:41.397Z,1.50
2019-02-24T07:59:13.142Z,1.55
2019-02-24T08:01:44.911Z,1.60
2019-02-24T08:04:23.956Z,1.59
2019-02-24T08:06:56.124Z,1.61
2019-02-24T08:09:29.158Z,1.75
2019-02-24T08:12:01.170Z,1.83
2019-02-24T08:14:33.491Z,1.91
2019-02-24T08:17:05.605Z,2.03
2019-02-24T08:19:37.438Z,2.07
2019-02-24T08:22:09.954Z,2.15
2019-02-24T08:24:41.744Z,2.17
2019-02-24T08:27:13.404Z,2.23
2019-02-24T08:29:45.095Z,2.30
2019-02-24T08:32:16.745Z,2.34
2019-02-24T08:34:48.470Z,2.35
2019-02-24T08:37:21.219Z,2.43
2019-02-24T08:39:53.381Z,2.39
2019-02-24T08:42:25.031Z,2.38
2019-02-24T08:44:56.607Z,2.42
2019-02-24T08:47:28.262Z,2.45
2019-02-24T08:49:59.929Z,2.45
2019-02-24T08:52:32.213Z,2.54
2019-02-24T08:55:04.252Z,2.57
2019-02-24T08:57:36.357Z,2.65
2019-02-24T09:00:10.286Z,2.81
2019-02-24T09:02:43.716Z,2.96
2019-02-24T09:05:15.880Z,3.05
2019-02-24T09:07:47.952Z,3.30
2019-02-24T09:10:19.908Z,3.48
2019-02-24T09:12:51.809Z,3.58
2019-02-24T09:15:23.469Z,3.68
2019-02-24T09:17:55.326Z,3.71
2019-02-24T09:20:26.967Z,3.73
2019-02-24T09:22:58.550Z,3.76
2019-02-24T09:25:30.336Z,4.06
2019-02-24T09:28:02.068Z,4.25
2019-02-24T09:30:33.849Z,4.51
2019-02-24T09:33:05.633Z,4.62
2019-02-24T09:35:37.807Z,4.70
2019-02-24T09:38:10.493Z,4.89
2019-02-24T09:40:42.158Z,5.00
2019-02-24T09:43:16.113Z,5.16
2019-02-24T09:45:48.019Z,5.30
2019-02-24T09:48:19.586Z,5.20
2019-02-24T09:50:51.415Z,5.44
2019-02-24T09:53:23.323Z,5.48
2019-02-24T09:55:55.096Z,5.49
2019-02-24T09:58:26.676Z,5.44
2019-02-24T10:00:58.256Z,5.46
2019-02-24T10:03:29.913Z,5.44
2019-02-24T10:06:01.504Z,5.36
2019-02-24T10:08:33.152Z,5.34
2019-02-24T10:11:04.819Z,5.18
2019-02-24T10:13:36.472Z,5.33
2019-02-24T10:16:08.144Z,5.17
2019-02-24T10:18:39.805Z,5.13
2019-02-24T10:21:11.491Z,5.17
2019-02-24T10:23:43.077Z,5.08
2019-02-24T10:26:14.671Z,5.04
2019-02-24T10:28:47.795Z,5.09
2019-02-24T10:31:20.176Z,5.07
2019-02-24T10:33:51.980Z,5.12
2019-02-24T10:36:25.302Z,5.29
2019-02-24T10:38:56.955Z,5.97
2019-02-24T10:41:28.619Z,6.38
2019-02-24T10:44:00.275Z,6.64
2019-02-24T10:46:31.947Z,7.00
2019-02-24T10:49:03.815Z,7.09
2019-02-24T10:51:35.539Z,7.42
2019-02-24T10:54:07.105Z,7.49
2019-02-24T10:56:38.755Z,7.57
2019-02-24T10:59:10.397Z,7.65
2019-02-24T11:01:42.062Z,7.62
2019-02-24T11:04:13.638Z,7.59
2019-02-24T11:06:45.587Z,7.39
2019-02-24T11:09:22.815Z,7.48
2019-02-24T11:11:55.088Z,7.24
2019-02-24T11:14:26.759Z,7.40
2019-02-24T11:16:58.467Z,7.57
2019-02-24T11:19:30.058Z,7.62
2019-02-24T11:22:01.707Z,7.73
2019-02-24T11:24:34.357Z,7.86
2019-02-24T11:27:06.205Z,7.97
2019-02-24T11:29:37.779Z,8.13
2019-02-24T11:32:09.447Z,8.35
2019-02-24T11:34:41.096Z,8.52
2019-02-24T11:37:12.822Z,8.46
2019-02-24T11:39:44.488Z,8.62
2019-02-24T11:42:16.215Z,8.66
2019-02-24T11:44:47.887Z,8.64
2019-02-24T11:47:19.554Z,8.70
2019-02-24T11:49:51.500Z,8.63
2019-02-24T11:52:23.298Z,8.58
2019-02-24T11:54:54.878Z,8.55
2019-02-24T11:57:26.489Z,8.56
2019-02-24T11:59:58.070Z,8.70
2019-02-24T12:02:34.496Z,8.70
2019-02-24T12:05:03.067Z,8.68
2019-02-24T12:07:34.930Z,8.66
2019-02-24T12:10:08.332Z,8.64
2019-02-24T12:12:40.082Z,8.60
2019-02-24T12:15:11.807Z,8.65
2019-02-24T12:17:44.594Z,8.62
2019-02-24T12:20:16.164Z,8.63
2019-02-24T12:22:47.748Z,8.75
2019-02-24T12:25:19.579Z,8.75
2019-02-24T12:27:51.483Z,8.85
2019-02-24T12:30:23.280Z,8.88
2019-02-24T12:32:55.007Z,8.96
2019-02-24T12:35:26.642Z,8.89
2019-02-24T12:37:58.300Z,8.90
2019-02-24T12:40:30.856Z,8.96
2019-02-24T12:43:02.518Z,9.03
2019-02-24T12:45:34.162Z,8.90
2019-02-24T12:48:05.840Z,8.83
2019-02-24T12:50:37.413Z,8.86
2019-02-24T12:53:09.018Z,8.61
2019-02-24T12:55:40.653Z,8.54
2019-02-24T12:58:12.267Z,8.54
2019-02-24T13:00:43.854Z,8.50
2019-02-24T13:03:23.758Z,8.55
2019-02-24T13:05:48.881Z,8.68
2019-02-24T13:08:20.741Z,8.75
2019-02-24T13:10:52.581Z,8.81
2019-02-24T13:13:24.506Z,8.85
2019-02-24T13:15:56.393Z,8.93
2019-02-24T13:18:28.054Z,9.01
2019-02-24T13:20:59.634Z,8.91
2019-02-24T13:23:31.396Z,8.93
2019-02-24T13:26:02.965Z,8.85
2019-02-24T13:28:35.158Z,8.83
2019-02-24T13:31:06.800Z,8.92
2019-02-24T13:33:38.444Z,9.03
2019-02-24T13:36:10.127Z,9.02
2019-02-24T13:38:41.821Z,8.98
2019-02-24T13:41:13.463Z,9.08
2019-02-24T13:43:45.130Z,9.07
2019-02-24T13:46:16.797Z,9.26
2019-02-24T13:48:48.557Z,9.37
2019-02-24T13:51:20.253Z,9.57
2019-02-24T13:53:51.870Z,9.69
2019-02-24T13:56:23.555Z,9.64
2019-02-24T13:58:55.162Z,9.67
2019-02-24T14:01:26.745Z,9.75
2019-02-24T14:03:58.323Z,9.77
2019-02-24T14:06:29.904Z,9.80
2019-02-24T14:09:01.494Z,9.79
2019-02-24T14:11:34.692Z,9.85
2019-02-24T14:14:06.400Z,9.78
2019-02-24T14:16:38.071Z,9.86
2019-02-24T14:19:09.774Z,9.81
2019-02-24T14:21:41.418Z,9.87
2019-02-24T14:24:13.019Z,9.88
2019-02-24T14:26:44.705Z,9.89
2019-02-24T14:29:16.326Z,9.90
2019-02-24T14:31:48.347Z,9.75
2019-02-24T14:34:20.247Z,9.85
2019-02-24T14:36:51.894Z,9.90
2019-02-24T14:39:23.619Z,9.90
2019-02-24T14:41:55.291Z,9.95
2019-02-24T14:44:26.954Z,9.99
2019-02-24T14:46:58.606Z,10.02
2019-02-24T14:49:30.276Z,10.09
2019-02-24T14:52:01.954Z,10.17
2019-02-24T14:54:33.686Z,10.16
2019-02-24T14:57:05.352Z,10.10
2019-02-24T14:59:37.143Z,10.24
2019-02-24T15:02:08.834Z,10.24
2019-02-24T15:04:40.514Z,10.29
2019-02-24T15:07:12.172Z,10.22
2019-02-24T15:09:43.906Z,10.12
2019-02-24T15:12:15.527Z,10.12
2019-02-24T15:14:47.206Z,10.14
2019-02-24T15:17:19.322Z,10.12
2019-02-24T15:19:51.121Z,10.10
2019-02-24T15:22:23.564Z,10.09
2019-02-24T15:24:55.303Z,10.15
2019-02-24T15:27:27.104Z,10.12
2019-02-24T15:30:00.319Z,10.15
2019-02-24T15:32:31.920Z,10.12
2019-02-24T15:35:03.521Z,10.13
2019-02-24T15:37:35.341Z,10.16
2019-02-24T15:40:07.714Z,10.15
2019-02-24T15:42:39.382Z,10.10
2019-02-24T15:45:11.036Z,10.10
2019-02-24T15:47:42.714Z,10.10
2019-02-24T15:50:14.338Z,10.14
2019-02-24T15:52:45.917Z,10.16
2019-02-24T15:55:17.544Z,10.07
2019-02-24T15:57:49.257Z,10.07
2019-02-24T16:00:21.022Z,10.09
2019-02-24T16:03:01.177Z,9.93
2019-02-24T16:05:26.012Z,9.78
2019-02-24T16:07:57.600Z,9.66
2019-02-24T16:10:29.255Z,9.64
2019-02-24T16:13:00.847Z,9.55
2019-02-24T16:15:32.495Z,9.46
2019-02-24T16:18:04.156Z,9.38
2019-02-24T16:20:35.779Z,9.28
2019-02-24T16:23:07.438Z,9.23
2019-02-24T16:25:39.059Z,9.20
2019-02-24T16:28:10.664Z,9.22
2019-02-24T16:30:42.397Z,9.12
2019-02-24T16:33:14.063Z,9.06
2019-02-24T16:35:45.681Z,9.02
2019-02-24T16:38:17.329Z,8.88
2019-02-24T16:40:48.931Z,8.77
2019-02-24T16:43:20.725Z,8.66
2019-02-24T16:45:52.417Z,8.65
2019-02-24T16:48:24.156Z,8.63
2019-02-24T16:50:55.783Z,8.63
2019-02-24T16:53:27.434Z,8.58
2019-02-24T16:56:00.141Z,8.46
2019-02-24T16:58:33.242Z,8.32
2019-02-24T17:01:08.673Z,8.20
2019-02-24T17:03:40.963Z,8.16
2019-02-24T17:06:14.228Z,8.08
2019-02-24T17:08:52.142Z,8.00
2019-02-24T17:11:20.047Z,8.00
2019-02-24T17:13:52.726Z,7.96
2019-02-24T17:16:24.331Z,7.84
2019-02-24T17:18:55.939Z,7.78
2019-02-24T17:21:30.355Z,7.65
2019-02-24T17:24:02.563Z,7.52
2019-02-24T17:26:34.810Z,7.42
2019-02-24T17:29:06.517Z,7.24
2019-02-24T17:31:38.416Z,7.14
2019-02-24T17:34:10.603Z,7.20
2019-02-24T17:36:42.762Z,7.10
2019-02-24T17:39:14.723Z,7.07
2019-02-24T17:41:46.699Z,7.07
2019-02-24T17:44:18.486Z,7.02
2019-02-24T17:46:51.422Z,6.76
2019-02-24T17:49:23.601Z,6.72
2019-02-24T17:51:55.812Z,6.65
2019-02-24T17:54:28.808Z,6.56
2019-02-24T17:57:00.692Z,6.44
2019-02-24T17:59:40.185Z,6.36
2019-02-24T18:02:06.436Z,6.37
2019-02-24T18:04:38.235Z,6.30
2019-02-24T18:07:09.954Z,6.38
2019-02-24T18:09:41.873Z,6.40
2019-02-24T18:12:14.700Z,6.40
2019-02-24T18:14:46.585Z,6.39
2019-02-24T18:17:20.811Z,6.31
2019-02-24T18:19:54.033Z,6.34
2019-02-24T18:22:26.215Z,6.34
2019-02-24T18:25:03.284Z,6.20
2019-02-24T18:27:32.454Z,5.92
2019-02-24T18:30:04.765Z,5.89
2019-02-24T18:32:36.885Z,5.96
2019-02-24T18:35:09.168Z,5.84
2019-02-24T18:37:41.912Z,5.89
2019-02-24T18:40:14.223Z,5.86
2019-02-24T18:42:46.538Z,5.81
2019-02-24T18:45:18.491Z,5.66
2019-02-24T18:47:51.039Z,5.66
2019-02-24T18:50:23.532Z,5.46
2019-02-24T18:52:55.539Z,5.48
2019-02-24T18:55:27.631Z,5.41
2019-02-24T18:57:59.571Z,5.40
2019-02-24T19:00:32.651Z,5.35
2019-02-24T19:03:04.827Z,5.25
2019-02-24T19:05:36.985Z,5.09
2019-02-24T19:08:08.880Z,5.15
2019-02-24T19:10:42.729Z,5.23
2019-02-24T19:13:14.650Z,5.25
2019-02-24T19:15:46.681Z,5.26
2019-02-24T19:18:18.469Z,5.26
2019-02-24T19:20:50.311Z,5.32
2019-02-24T19:23:22.185Z,5.34
2019-02-24T19:25:54.158Z,5.39
2019-02-24T19:28:27.058Z,5.39
2019-02-24T19:31:04.234Z,5.33
2019-02-24T19:33:38.249Z,5.28
2019-02-24T19:36:10.294Z,5.23
2019-02-24T19:38:42.338Z,5.12
2019-02-24T19:41:14.029Z,5.23
2019-02-24T19:43:45.758Z,5.24
2019-02-24T19:46:17.448Z,5.12
2019-02-24T19:48:49.172Z,5.09
2019-02-24T19:51:20.879Z,5.00
2019-02-24T19:53:52.613Z,4.99
2019-02-24T19:56:24.495Z,4.91
2019-02-24T19:58:57.121Z,4.94
2019-02-24T20:01:28.817Z,4.86
2019-02-24T20:04:02.708Z,4.82
2019-02-24T20:06:34.400Z,4.84
2019-02-24T20:09:07.235Z,4.82
2019-02-24T20:11:39.753Z,4.78
2019-02-24T20:14:15.355Z,4.77
2019-02-24T20:16:47.735Z,4.78
2019-02-24T20:19:19.443Z,4.72
2019-02-24T20:21:51.211Z,4.62
2019-02-24T20:24:23.016Z,4.54
2019-02-24T20:26:57.122Z,4.42
2019-02-24T20:29:28.921Z,4.35
2019-02-24T20:32:01.937Z,4.25
2019-02-24T20:34:33.682Z,4.24
2019-02-24T20:37:05.334Z,4.30
2019-02-24T20:39:38.589Z,4.37
2019-02-24T20:42:10.790Z,4.39
2019-02-24T20:44:43.068Z,4.48
2019-02-24T20:47:15.028Z,4.45
2019-02-24T20:49:46.959Z,4.48
2019-02-24T20:52:19.773Z,4.48
2019-02-24T20:54:54.988Z,4.52
2019-02-24T20:57:27.643Z,4.56
2019-02-24T21:00:00.051Z,4.54
2019-02-24T21:02:32.091Z,4.56
2019-02-24T21:05:05.739Z,4.58
2019-02-24T21:07:38.824Z,4.64
2019-02-24T21:10:14.175Z,4.61
2019-02-24T21:12:46.216Z,4.53
2019-02-24T21:15:19.240Z,4.53
2019-02-24T21:17:52.149Z,4.49
2019-02-24T21:20:25.977Z,4.41
2019-02-24T21:22:58.240Z,4.38
2019-02-24T21:25:30.096Z,4.40
2019-02-24T21:28:02.109Z,4.32
2019-02-24T21:30:34.092Z,4.28
2019-02-24T21:33:05.953Z,4.25
2019-02-24T21:35:37.615Z,4.23
2019-02-24T21:38:09.231Z,4.17
2019-02-24T21:40:40.906Z,4.17
2019-02-24T21:43:12.590Z,4.19
2019-02-24T21:45:44.254Z,4.08
2019-02-24T21:48:15.914Z,4.08
2019-02-24T21:50:47.583Z,4.06
2019-02-24T21:53:19.164Z,4.03
2019-02-24T21:55:50.872Z,3.96
2019-02-24T21:58:22.537Z,3.93
2019-02-24T22:00:54.271Z,3.88
2019-02-24T22:03:27.504Z,3.79
2019-02-24T22:05:59.108Z,3.75
2019-02-24T22:08:30.714Z,3.69
2019-02-24T22:11:02.327Z,3.75
2019-02-24T22:13:33.917Z,3.80
2019-02-24T22:16:05.532Z,3.85
2019-02-24T22:18:37.120Z,3.86
2019-02-24T22:21:08.809Z,3.82
2019-02-24T22:23:40.466Z,3.91
2019-02-24T22:26:12.324Z,3.85
2019-02-24T22:28:43.962Z,3.91
2019-02-24T22:31:15.573Z,3.80
2019-02-24T22:33:47.226Z,3.78
2019-02-24T22:36:18.842Z,3.76
2019-02-24T22:38:50.443Z,3.73
2019-02-24T22:41:22.426Z,3.72
2019-02-24T22:43:54.418Z,3.69
2019-02-24T22:46:26.364Z,3.66
2019-02-24T22:48:58.256Z,3.67
2019-02-24T22:51:29.848Z,3.67
2019-02-24T22:54:01.436Z,3.68
2019-02-24T22:56:33.125Z,3.53
2019-02-24T22:59:04.719Z,3.49
2019-02-24T23:01:38.735Z,3.57
2019-02-24T23:04:12.617Z,3.50
2019-02-24T23:06:44.299Z,3.56
2019-02-24T23:09:18.342Z,3.54
2019-02-24T23:11:50.006Z,3.47
2019-02-24T23:14:23.227Z,3.44
2019-02-24T23:16:55.156Z,3.37
2019-02-24T23:19:26.740Z,3.35
2019-02-24T23:21:58.547Z,3.22
2019-02-24T23:24:30.143Z,3.25
2019-02-24T23:27:01.823Z,3.27
2019-02-24T23:29:33.469Z,3.26
2019-02-24T23:32:05.139Z,3.23
2019-02-24T23:34:36.809Z,3.15
2019-02-24T23:37:08.506Z,3.19
2019-02-24T23:39:40.114Z,3.16
2019-02-24T23:42:11.807Z,3.12
2019-02-24T23:44:43.511Z,3.09
2019-02-24T23:47:15.128Z,3.05
2019-02-24T23:49:46.787Z,3.04
2019-02-24T23:52:18.585Z,2.99
2019-02-24T23:54:50.177Z,2.98
2019-02-24T23:57:22.204Z,2.96
2019-02-24T23:59:53.795Z,2.99
